Details From LOWI - Innsbruck Kranebitten
To TNCM - St Maarten - Princess Juliana Intl
Flight Number -
Tags Generated
Created
Modified
Stats Distance 3,988 nm / 7,385 km
Max Altitude 0 ft / 0 m
Waypoints 5
Social Downloads 0
Likes 0
Share VATSIM

Download

Looking for another format? Having issues loading an existing format? Contact us
Advertisement - Login to hide

Notes

Generated

Route

LOWI BSV BEVOL MNOLO TNCM

ID Type Via Altitude Latitude Longitude Leg Dist Tot Dist Heading (true) Name
O LOWI APT - 0 ft / 0 m 47.25883˚ 11.33091˚ - 0 nm - -
BSV NDB - 0 ft / 0 m 47.26694˚ 6.20250˚ 208 nm 208 nm 272° / 268° Besancon la Veze NDB
BEVOL FIX - 0 ft / 0 m 47.01194˚ 0.93083˚ 215 nm 424 nm 268° / 264° -
MNOLO FIX - 0 ft / 0 m 18.34556˚ -62.80211˚ 3536 nm 3961 nm 264° / 226° -
O TNCM APT - 0 ft / 0 m 18.03937˚ -63.11961˚ 25 nm 3987 nm 225° / 225° -

Altitude Profile

Advertisement - Login to hide

Weather


0- 5 10 15 20 25 30 35+ Temperature / ° C

Clouds and Precipitation
Forecast for 2018-05-26 06:00 UTC. Updated an hour ago

Ground ~20,000 ft ~40,000 ft Winds

LOWI

Details ICAO LOWI (INN)
Name Innsbruck Kranebitten
Region Austria
Timezone Europe/Vienna (UTC+2.0)
Stats Elevation 1,906 ft / 581 m (AMSL)
Location 47.260226° 11.343967°
Runways 1
Magnetic Variation 3.072° E

METAR

LOWI 260620Z 26003KT 220V290 CAVOK 16/11 Q1022 NOSIG

Decode

TAF

TAF LOWI 260515Z 2606/2706 27005KT CAVOK TX28/2614Z TN14/2704Z BECMG 2608/2610 09007KT 9999 FEW060 TEMPO 2613/2617 09012G25KT FEW060CB BECMG 2618/2620 VRB02KT CAVOK

Decode

Departure Runways

ID Width Length Bearing (true) Bearing (mag) Surface Threshold Offset Overrun Length
08 148 ft / 45 m 6,545 ft / 1,995 m 81.02° 77.95° Asphalt 338 ft / 103 m 0 ft / 0 m
26 148 ft / 45 m 6,545 ft / 1,995 m 261.04° 257.97° Asphalt 0 ft / 0 m 0 ft / 0 m

TNCM

Details ICAO TNCM (SXM)
Name St Maarten - Princess Juliana Intl
Region Caribbean Netherlands, Aruba, Curaçao, Sint Maarten
Timezone Unknown (UTC+0.0)
Stats Elevation 12 ft / 4 m (AMSL)
Location 18.040889° -63.108974°
Runways 1
Magnetic Variation 14.337° W

METAR

TNCM 260600Z 09009KT 050V120 9999 FEW018 26/22 Q1015 A2999

Decode

TAF

TAF TNCM 260520Z 2606/2706 08010KT P6SM FEW018 FM261400 11014KT P6SM SCT022

Decode

Destination Runways

ID Width Length Bearing (true) Bearing (mag) Surface Threshold Offset Overrun Length
10 148 ft / 45 m 7,464 ft / 2,275 m 81.43° 95.77° Asphalt 0 ft / 0 m 151 ft / 46 m
28 148 ft / 45 m 7,464 ft / 2,275 m 261.44° 275.78° Asphalt 397 ft / 121 m 0 ft / 0 m

Popular Alternatives